createdAt,value
2022-12-25T00:01:38.797Z,89.00
2022-12-25T00:04:05.376Z,89.14
2022-12-25T00:06:31.901Z,89.21
2022-12-25T00:08:58.294Z,89.22
2022-12-25T00:11:24.726Z,89.06
2022-12-25T00:13:51.199Z,89.57
2022-12-25T00:16:24.376Z,89.40
2022-12-25T00:18:51.706Z,89.53
2022-12-25T00:21:20.198Z,89.73
2022-12-25T00:23:46.908Z,89.29
2022-12-25T00:26:15.798Z,89.81
2022-12-25T00:28:43.046Z,89.70
2022-12-25T00:31:15.309Z,89.95
2022-12-25T00:33:43.388Z,90.00
2022-12-25T00:36:11.384Z,89.84
2022-12-25T00:38:39.627Z,89.80
2022-12-25T00:41:44.882Z,89.87
2022-12-25T00:44:13.791Z,90.25
2022-12-25T00:46:41.251Z,90.17
2022-12-25T00:49:07.803Z,90.17
2022-12-25T00:51:34.222Z,90.55
2022-12-25T00:54:00.865Z,90.59
2022-12-25T00:56:27.483Z,90.63
2022-12-25T00:58:54.933Z,90.34
2022-12-25T01:01:21.567Z,90.43
2022-12-25T01:03:48.039Z,90.56
2022-12-25T01:06:14.389Z,90.77
2022-12-25T01:09:02.521Z,90.59
2022-12-25T01:11:29.440Z,90.83
2022-12-25T01:13:56.209Z,90.67
2022-12-25T01:16:22.648Z,90.73
2022-12-25T01:18:49.157Z,90.54
2022-12-25T01:21:17.283Z,90.70
2022-12-25T01:23:44.685Z,90.78
2022-12-25T01:26:13.401Z,90.68
2022-12-25T01:28:40.428Z,90.72
2022-12-25T01:31:10.672Z,90.80
2022-12-25T01:33:38.501Z,91.01
2022-12-25T01:36:13.259Z,90.76
2022-12-25T01:38:39.621Z,91.17
2022-12-25T01:41:06.002Z,91.01
2022-12-25T01:43:33.836Z,90.87
2022-12-25T01:46:00.645Z,91.10
2022-12-25T01:48:35.411Z,91.00
2022-12-25T01:51:06.643Z,91.45
2022-12-25T01:53:33.629Z,91.19
2022-12-25T01:56:05.136Z,91.30
2022-12-25T01:58:32.093Z,91.29
2022-12-25T02:00:58.543Z,90.99
2022-12-25T02:03:25.413Z,91.33
2022-12-25T02:05:52.529Z,91.05
2022-12-25T02:08:21.029Z,91.25
2022-12-25T02:10:47.899Z,91.35
2022-12-25T02:13:18.239Z,91.01
2022-12-25T02:16:13.140Z,91.36
2022-12-25T02:18:51.820Z,91.34
2022-12-25T02:21:23.261Z,90.91
2022-12-25T02:24:06.371Z,90.91
2022-12-25T02:26:43.631Z,90.79
2022-12-25T02:29:12.538Z,91.02
2022-12-25T02:31:45.858Z,91.23
2022-12-25T02:34:26.113Z,90.88
2022-12-25T02:37:21.023Z,91.06
2022-12-25T02:40:00.737Z,90.95
2022-12-25T02:42:52.790Z,91.48
2022-12-25T02:45:53.096Z,91.49
2022-12-25T02:48:42.419Z,91.52
2022-12-25T02:51:31.483Z,91.49
2022-12-25T02:54:20.043Z,91.42
2022-12-25T02:57:07.990Z,91.31
2022-12-25T02:59:56.804Z,91.27
2022-12-25T03:02:43.161Z,91.45
2022-12-25T03:05:33.187Z,91.50
2022-12-25T03:08:04.781Z,91.28
2022-12-25T03:10:53.778Z,91.60
2022-12-25T03:13:27.134Z,91.56
2022-12-25T03:16:12.607Z,91.65
2022-12-25T03:18:39.169Z,91.81
2022-12-25T03:21:24.600Z,91.81
2022-12-25T03:24:21.268Z,91.88
2022-12-25T03:26:57.965Z,92.01
2022-12-25T03:29:49.883Z,91.72
2022-12-25T03:32:34.132Z,91.93
2022-12-25T03:35:28.056Z,91.79
2022-12-25T03:38:19.348Z,91.88
2022-12-25T03:41:32.074Z,92.16
2022-12-25T03:44:26.443Z,92.04
2022-12-25T03:47:19.712Z,91.97
2022-12-25T03:50:38.633Z,92.17
2022-12-25T03:53:29.188Z,92.37
2022-12-25T03:56:15.574Z,92.37
2022-12-25T03:59:13.604Z,92.43
2022-12-25T04:02:00.904Z,92.21
2022-12-25T04:04:46.141Z,92.33
2022-12-25T04:07:31.064Z,92.26
2022-12-25T04:10:15.782Z,92.50
2022-12-25T04:13:00.641Z,92.63
2022-12-25T04:15:45.380Z,92.14
2022-12-25T04:18:30.859Z,92.58
2022-12-25T04:21:15.696Z,92.28
2022-12-25T04:24:00.437Z,92.12
2022-12-25T04:26:45.829Z,92.28
2022-12-25T04:29:30.567Z,92.16
2022-12-25T04:32:15.425Z,92.24
2022-12-25T04:35:00.267Z,92.30
2022-12-25T04:37:26.773Z,92.19
2022-12-25T04:39:53.137Z,92.23
2022-12-25T04:42:19.670Z,92.33
2022-12-25T04:44:46.002Z,92.19
2022-12-25T04:47:13.055Z,92.16
2022-12-25T04:49:39.599Z,92.16
2022-12-25T04:52:06.234Z,92.35
2022-12-25T04:54:32.639Z,92.29
2022-12-25T04:56:59.056Z,92.16
2022-12-25T04:59:25.393Z,92.21
2022-12-25T05:01:51.830Z,91.91
2022-12-25T05:04:18.249Z,92.18
2022-12-25T05:06:44.679Z,92.24
2022-12-25T05:09:11.055Z,92.10
2022-12-25T05:11:37.580Z,91.81
2022-12-25T05:14:03.957Z,91.95
2022-12-25T05:16:30.568Z,91.61
2022-12-25T05:18:57.438Z,92.05
2022-12-25T05:21:23.929Z,91.84
2022-12-25T05:23:51.666Z,91.68
2022-12-25T05:26:20.747Z,91.68
2022-12-25T05:28:47.528Z,92.06
2022-12-25T05:31:14.471Z,91.95
2022-12-25T05:33:40.944Z,91.81
2022-12-25T05:36:09.370Z,91.59
2022-12-25T05:38:35.946Z,91.94
2022-12-25T05:41:02.506Z,91.65
2022-12-25T05:43:29.967Z,91.99
2022-12-25T05:45:56.434Z,91.65
2022-12-25T05:48:23.277Z,91.59
2022-12-25T05:50:49.747Z,92.03
2022-12-25T05:53:16.761Z,91.72
2022-12-25T05:55:43.579Z,91.47
2022-12-25T05:58:11.901Z,92.01
2022-12-25T06:00:38.460Z,91.57
2022-12-25T06:03:04.970Z,91.43
2022-12-25T06:05:31.979Z,91.56
2022-12-25T06:07:58.768Z,91.94
2022-12-25T06:10:25.203Z,91.67
2022-12-25T06:12:51.536Z,91.52
2022-12-25T06:15:18.036Z,91.64
2022-12-25T06:17:44.379Z,92.03
2022-12-25T06:20:10.912Z,91.62
2022-12-25T06:22:37.238Z,92.01
2022-12-25T06:25:03.886Z,91.64
2022-12-25T06:27:30.208Z,91.55
2022-12-25T06:29:56.648Z,91.80
2022-12-25T06:32:23.046Z,91.93
2022-12-25T06:34:49.436Z,91.64
2022-12-25T06:37:15.993Z,92.06
2022-12-25T06:39:42.303Z,92.14
2022-12-25T06:42:09.059Z,91.85
2022-12-25T06:44:35.392Z,91.85
2022-12-25T06:47:01.767Z,91.71
2022-12-25T06:49:28.265Z,92.22
2022-12-25T06:51:54.614Z,92.01
2022-12-25T06:54:21.108Z,92.04
2022-12-25T06:56:48.612Z,91.81
2022-12-25T06:59:14.968Z,91.93
2022-12-25T07:01:51.098Z,92.15
2022-12-25T07:04:25.189Z,92.37
2022-12-25T07:06:52.170Z,92.17
2022-12-25T07:09:18.589Z,92.27
2022-12-25T07:11:45.057Z,92.51
2022-12-25T07:14:23.906Z,92.52
2022-12-25T07:16:50.859Z,92.36
2022-12-25T07:19:17.407Z,92.34
2022-12-25T07:21:43.768Z,92.23
2022-12-25T07:24:10.828Z,92.31
2022-12-25T07:26:37.218Z,92.16
2022-12-25T07:29:03.546Z,92.19
2022-12-25T07:31:30.021Z,92.22
2022-12-25T07:33:56.490Z,92.38
2022-12-25T07:36:22.962Z,92.47
2022-12-25T07:38:50.107Z,92.39
2022-12-25T07:41:16.651Z,92.60
2022-12-25T07:43:43.102Z,92.32
2022-12-25T07:46:10.070Z,92.30
2022-12-25T07:48:36.744Z,92.34
2022-12-25T07:51:06.551Z,92.50
2022-12-25T07:53:33.968Z,92.59
2022-12-25T07:56:03.596Z,92.26
2022-12-25T07:58:30.819Z,92.18
2022-12-25T08:01:04.265Z,92.20
2022-12-25T08:03:31.832Z,92.35
2022-12-25T08:06:06.947Z,92.79
2022-12-25T08:08:33.517Z,92.29
2022-12-25T08:10:59.950Z,92.46
2022-12-25T08:13:26.795Z,92.72
2022-12-25T08:16:01.167Z,92.39
2022-12-25T08:18:30.131Z,92.46
2022-12-25T08:20:56.990Z,92.56
2022-12-25T08:23:23.349Z,92.38
2022-12-25T08:25:49.788Z,92.48
2022-12-25T08:28:16.206Z,92.72
2022-12-25T08:30:42.677Z,92.28
2022-12-25T08:33:09.020Z,92.68
2022-12-25T08:35:36.061Z,92.13
2022-12-25T08:38:02.626Z,92.58
2022-12-25T08:40:29.032Z,92.31
2022-12-25T08:42:58.356Z,92.56
2022-12-25T08:45:27.392Z,92.30
2022-12-25T08:47:57.821Z,92.38
2022-12-25T08:50:25.089Z,92.15
2022-12-25T08:52:51.553Z,92.40
2022-12-25T08:55:18.024Z,92.41
2022-12-25T08:57:44.325Z,92.56
2022-12-25T09:00:11.233Z,92.49
2022-12-25T09:02:37.805Z,92.64
2022-12-25T09:05:04.714Z,92.83
2022-12-25T09:07:31.112Z,92.61
2022-12-25T09:09:57.501Z,92.72
2022-12-25T09:12:23.920Z,92.43
2022-12-25T09:14:50.361Z,92.56
2022-12-25T09:17:16.754Z,92.48
2022-12-25T09:19:43.150Z,92.57
2022-12-25T09:22:09.471Z,92.55
2022-12-25T09:24:35.848Z,92.52
2022-12-25T09:27:02.305Z,92.83
2022-12-25T09:29:28.633Z,92.98
2022-12-25T09:31:54.950Z,92.71
2022-12-25T09:34:21.302Z,92.87
2022-12-25T09:36:47.666Z,92.59
2022-12-25T09:39:13.964Z,92.55
2022-12-25T09:41:56.565Z,92.73
2022-12-25T09:44:27.521Z,92.99
2022-12-25T09:46:57.961Z,92.79
2022-12-25T09:49:35.440Z,93.04
2022-12-25T09:52:08.460Z,92.86
2022-12-25T09:54:49.731Z,92.65
2022-12-25T09:57:16.327Z,92.97
2022-12-25T09:59:44.747Z,92.68
2022-12-25T10:02:36.974Z,92.92
2022-12-25T10:05:15.334Z,92.70
2022-12-25T10:08:03.392Z,93.02
2022-12-25T10:10:32.861Z,92.71
2022-12-25T10:13:14.280Z,92.72
2022-12-25T10:16:16.087Z,92.98
2022-12-25T10:18:57.355Z,93.17
2022-12-25T10:21:23.972Z,93.24
2022-12-25T10:24:04.552Z,92.99
2022-12-25T10:26:33.412Z,92.99
2022-12-25T10:29:09.992Z,93.02
2022-12-25T10:31:37.186Z,93.11
2022-12-25T10:34:05.046Z,93.04
2022-12-25T10:36:32.467Z,93.37
2022-12-25T10:38:59.277Z,93.31
2022-12-25T10:41:37.610Z,93.30
2022-12-25T10:44:13.457Z,93.06
2022-12-25T10:46:40.804Z,93.09
2022-12-25T10:49:15.324Z,93.38
2022-12-25T10:51:41.683Z,93.62
2022-12-25T10:54:31.288Z,93.20
2022-12-25T10:57:07.725Z,93.24
2022-12-25T10:59:41.599Z,93.49
2022-12-25T11:02:15.862Z,93.32
2022-12-25T11:04:42.816Z,93.66
2022-12-25T11:07:24.277Z,93.42
2022-12-25T11:10:02.611Z,93.77
2022-12-25T11:12:36.046Z,93.32
2022-12-25T11:15:42.526Z,93.74
2022-12-25T11:18:32.346Z,93.51
2022-12-25T11:21:14.129Z,93.35
2022-12-25T11:23:48.585Z,93.70
2022-12-25T11:26:17.173Z,93.72
2022-12-25T11:28:45.359Z,93.78
2022-12-25T11:31:19.311Z,93.77
2022-12-25T11:33:50.429Z,93.76
2022-12-25T11:36:50.673Z,93.88
2022-12-25T11:39:37.645Z,93.47
2022-12-25T11:42:16.110Z,93.81
2022-12-25T11:44:45.824Z,93.79
2022-12-25T11:47:26.026Z,93.64
2022-12-25T11:50:00.895Z,93.72
2022-12-25T11:52:31.625Z,93.90
2022-12-25T11:55:23.822Z,93.77
2022-12-25T11:58:01.214Z,93.74
2022-12-25T12:00:30.597Z,93.95
2022-12-25T12:03:24.881Z,94.14
2022-12-25T12:05:58.187Z,94.05
2022-12-25T12:08:24.765Z,94.18
2022-12-25T12:11:16.078Z,93.90
2022-12-25T12:13:54.869Z,93.88
2022-12-25T12:16:21.368Z,93.78
2022-12-25T12:18:50.506Z,94.00
2022-12-25T12:21:29.952Z,94.25
2022-12-25T12:24:11.646Z,93.83
2022-12-25T12:26:41.110Z,93.99
2022-12-25T12:29:23.849Z,93.88
2022-12-25T12:31:51.324Z,94.00
2022-12-25T12:34:29.099Z,93.81
2022-12-25T12:37:02.105Z,94.19
2022-12-25T12:39:36.410Z,93.96
2022-12-25T12:42:16.782Z,94.00
2022-12-25T12:44:44.287Z,94.12
2022-12-25T12:47:27.817Z,93.98
2022-12-25T12:49:58.831Z,93.95
2022-12-25T12:52:34.513Z,93.97
2022-12-25T12:55:03.836Z,93.88
2022-12-25T12:57:34.363Z,94.10
2022-12-25T13:00:08.696Z,94.01
2022-12-25T13:02:37.076Z,94.09
2022-12-25T13:05:35.281Z,93.89
2022-12-25T13:08:39.499Z,94.16
2022-12-25T13:11:11.837Z,94.19
2022-12-25T13:13:44.467Z,94.23
2022-12-25T13:16:24.875Z,94.28
2022-12-25T13:18:53.346Z,93.88
2022-12-25T13:21:24.286Z,94.28
2022-12-25T13:23:57.340Z,94.29
2022-12-25T13:26:24.284Z,94.12
2022-12-25T13:28:50.690Z,93.88
2022-12-25T13:31:21.216Z,93.99
2022-12-25T13:34:04.298Z,93.88
2022-12-25T13:36:36.928Z,94.25
2022-12-25T13:39:07.206Z,93.95
2022-12-25T13:42:02.713Z,94.14
2022-12-25T13:44:38.028Z,94.10
2022-12-25T13:47:32.156Z,93.96
2022-12-25T13:50:00.529Z,94.29
2022-12-25T13:52:37.996Z,94.23
2022-12-25T13:55:14.696Z,94.20
2022-12-25T13:57:56.585Z,94.15
2022-12-25T14:00:38.072Z,94.35
2022-12-25T14:03:07.493Z,94.39
2022-12-25T14:05:42.206Z,94.40
2022-12-25T14:08:17.421Z,94.47
2022-12-25T14:10:46.741Z,94.18
2022-12-25T14:13:15.432Z,94.60
2022-12-25T14:15:44.964Z,94.38
2022-12-25T14:18:16.007Z,94.44
2022-12-25T14:21:13.897Z,94.20
2022-12-25T14:23:48.418Z,94.52
2022-12-25T14:26:20.775Z,94.41
2022-12-25T14:28:54.736Z,94.64
2022-12-25T14:31:22.385Z,94.41
2022-12-25T14:33:49.874Z,94.36
2022-12-25T14:36:16.372Z,94.59
2022-12-25T14:38:44.091Z,94.28
2022-12-25T14:41:34.323Z,94.44
2022-12-25T14:44:04.650Z,94.49
2022-12-25T14:46:33.274Z,94.47
2022-12-25T14:49:01.367Z,94.09
2022-12-25T14:51:29.121Z,94.41
2022-12-25T14:53:58.815Z,94.49
2022-12-25T14:56:27.683Z,94.71
2022-12-25T14:58:57.174Z,94.44
2022-12-25T15:01:31.578Z,94.45
2022-12-25T15:04:07.582Z,94.11
2022-12-25T15:06:34.119Z,94.19
2022-12-25T15:09:06.698Z,94.23
2022-12-25T15:11:33.061Z,94.13
2022-12-25T15:13:59.517Z,94.45
2022-12-25T15:16:30.917Z,94.20
2022-12-25T15:18:57.508Z,94.52
2022-12-25T15:21:30.404Z,94.45
2022-12-25T15:23:58.900Z,94.67
2022-12-25T15:26:26.896Z,94.22
2022-12-25T15:28:53.230Z,94.51
2022-12-25T15:31:25.005Z,94.35
2022-12-25T15:33:54.430Z,94.36
2022-12-25T15:36:21.678Z,94.60
2022-12-25T15:38:48.426Z,94.27
2022-12-25T15:41:39.695Z,94.64
2022-12-25T15:44:06.620Z,94.55
2022-12-25T15:46:34.418Z,94.43
2022-12-25T15:49:01.248Z,94.43
2022-12-25T15:51:27.886Z,94.53
2022-12-25T15:53:54.424Z,94.62
2022-12-25T15:56:21.952Z,94.40
2022-12-25T15:58:48.368Z,94.58
2022-12-25T16:01:16.479Z,94.54
2022-12-25T16:03:43.890Z,94.63
2022-12-25T16:06:18.110Z,94.31
2022-12-25T16:08:45.712Z,94.39
2022-12-25T16:11:12.183Z,94.66
2022-12-25T16:13:38.744Z,94.24
2022-12-25T16:16:06.763Z,94.38
2022-12-25T16:18:33.228Z,94.33
2022-12-25T16:20:59.973Z,94.19
2022-12-25T16:23:26.356Z,94.25
2022-12-25T16:25:52.782Z,94.19
2022-12-25T16:28:19.231Z,94.54
2022-12-25T16:30:45.718Z,94.26
2022-12-25T16:33:12.147Z,94.53
2022-12-25T16:35:38.689Z,94.37
2022-12-25T16:38:05.197Z,94.11
2022-12-25T16:40:31.768Z,94.32
2022-12-25T16:42:58.154Z,94.23
2022-12-25T16:45:24.480Z,94.17
2022-12-25T16:47:50.905Z,94.58
2022-12-25T16:50:17.457Z,94.31
2022-12-25T16:52:43.908Z,94.14
2022-12-25T16:55:10.505Z,94.42
2022-12-25T16:57:37.544Z,94.41
2022-12-25T17:00:04.356Z,94.26
2022-12-25T17:02:30.946Z,94.16
2022-12-25T17:04:57.473Z,94.45
2022-12-25T17:07:23.857Z,94.37
2022-12-25T17:09:50.255Z,94.14
2022-12-25T17:12:16.867Z,94.42
2022-12-25T17:14:43.250Z,94.00
2022-12-25T17:17:09.639Z,94.12
2022-12-25T17:19:36.052Z,94.46
2022-12-25T17:22:02.468Z,94.52
2022-12-25T17:24:28.972Z,94.25
2022-12-25T17:26:55.733Z,94.37
2022-12-25T17:29:23.106Z,94.47
2022-12-25T17:31:50.538Z,94.36
2022-12-25T17:34:16.963Z,94.29
2022-12-25T17:36:43.362Z,94.33
2022-12-25T17:39:10.260Z,94.45
2022-12-25T17:41:36.668Z,94.14
2022-12-25T17:44:03.293Z,94.22
2022-12-25T17:46:30.997Z,94.41
2022-12-25T17:48:58.912Z,94.50
2022-12-25T17:51:27.267Z,94.42
2022-12-25T17:53:57.907Z,94.64
2022-12-25T17:56:24.698Z,94.35
2022-12-25T17:58:56.730Z,94.64
2022-12-25T18:01:24.466Z,94.46
2022-12-25T18:03:51.505Z,94.39
2022-12-25T18:06:20.661Z,94.33
2022-12-25T18:08:47.807Z,94.40
2022-12-25T18:11:17.951Z,94.62
2022-12-25T18:13:48.304Z,94.30
2022-12-25T18:16:16.436Z,94.58
2022-12-25T18:18:51.172Z,94.29
2022-12-25T18:21:19.135Z,94.29
2022-12-25T18:23:46.222Z,94.05
2022-12-25T18:26:12.614Z,94.33
2022-12-25T18:28:39.707Z,94.06
2022-12-25T18:31:26.446Z,93.91
2022-12-25T18:33:53.843Z,93.98
2022-12-25T18:36:22.708Z,94.14
2022-12-25T18:38:50.379Z,93.89
2022-12-25T18:41:17.709Z,94.07
2022-12-25T18:43:54.195Z,93.82
2022-12-25T18:46:26.877Z,93.91
2022-12-25T18:48:55.669Z,94.09
2022-12-25T18:51:22.144Z,94.04
2022-12-25T18:53:48.477Z,93.84
2022-12-25T18:56:17.360Z,94.20
2022-12-25T18:58:44.256Z,94.06
2022-12-25T19:01:17.176Z,94.14
2022-12-25T19:03:44.391Z,94.24
2022-12-25T19:06:17.474Z,94.16
2022-12-25T19:08:43.977Z,93.97
2022-12-25T19:11:10.395Z,94.27
2022-12-25T19:13:36.820Z,94.08
2022-12-25T19:16:03.772Z,93.91
2022-12-25T19:18:30.401Z,94.07
2022-12-25T19:20:56.801Z,94.28
2022-12-25T19:23:23.129Z,94.00
2022-12-25T19:25:49.569Z,94.08
2022-12-25T19:28:17.674Z,94.00
2022-12-25T19:30:44.270Z,94.02
2022-12-25T19:33:17.309Z,93.92
2022-12-25T19:35:44.287Z,94.42
2022-12-25T19:38:10.627Z,94.18
2022-12-25T19:40:38.333Z,94.15
2022-12-25T19:43:05.027Z,94.49
2022-12-25T19:45:31.684Z,94.22
2022-12-25T19:47:58.204Z,94.18
2022-12-25T19:50:30.645Z,94.40
2022-12-25T19:52:57.051Z,94.22
2022-12-25T19:55:23.490Z,94.48
2022-12-25T19:57:49.884Z,94.38
2022-12-25T20:00:16.647Z,94.25
2022-12-25T20:02:43.049Z,94.57
2022-12-25T20:05:09.587Z,94.19
2022-12-25T20:07:35.990Z,94.54
2022-12-25T20:10:02.399Z,94.49
2022-12-25T20:12:28.720Z,94.22
2022-12-25T20:14:55.054Z,94.53
2022-12-25T20:17:21.380Z,94.54
2022-12-25T20:19:47.718Z,94.07
2022-12-25T20:22:14.158Z,94.42
2022-12-25T20:24:40.609Z,94.15
2022-12-25T20:27:06.944Z,94.15
2022-12-25T20:29:33.273Z,94.30
2022-12-25T20:31:59.727Z,94.11
2022-12-25T20:34:26.169Z,94.19
2022-12-25T20:36:52.543Z,94.32
2022-12-25T20:39:19.038Z,94.41
2022-12-25T20:41:46.720Z,94.23
2022-12-25T20:44:13.368Z,93.96
2022-12-25T20:46:39.815Z,94.39
2022-12-25T20:49:06.394Z,94.28
2022-12-25T20:51:32.913Z,94.26
2022-12-25T20:53:59.393Z,94.15
2022-12-25T20:56:27.083Z,93.79
2022-12-25T20:58:58.965Z,94.26
2022-12-25T21:01:27.144Z,94.24
2022-12-25T21:03:54.089Z,94.37
2022-12-25T21:06:21.273Z,94.38
2022-12-25T21:08:48.026Z,94.31
2022-12-25T21:11:15.564Z,94.45
2022-12-25T21:13:43.812Z,94.25
2022-12-25T21:16:13.203Z,94.09
2022-12-25T21:18:40.156Z,94.42
2022-12-25T21:21:07.737Z,94.24
2022-12-25T21:23:36.684Z,94.38
2022-12-25T21:26:21.223Z,94.17
2022-12-25T21:28:49.073Z,94.70
2022-12-25T21:31:15.974Z,94.24
2022-12-25T21:33:51.763Z,94.07
2022-12-25T21:36:24.286Z,94.73
2022-12-25T21:39:06.088Z,94.53
2022-12-25T21:41:34.043Z,94.90
2022-12-25T21:44:01.162Z,94.58
2022-12-25T21:46:28.629Z,94.75
2022-12-25T21:48:55.808Z,95.12
2022-12-25T21:51:49.162Z,94.87
2022-12-25T21:54:17.188Z,95.18
2022-12-25T21:56:47.016Z,94.77
2022-12-25T21:59:16.134Z,94.89
2022-12-25T22:01:43.595Z,95.21
2022-12-25T22:04:10.997Z,94.99
2022-12-25T22:06:56.053Z,94.97
2022-12-25T22:09:23.377Z,95.10
2022-12-25T22:12:08.344Z,94.97
2022-12-25T22:14:53.318Z,95.01
2022-12-25T22:17:40.984Z,94.93
2022-12-25T22:20:10.560Z,95.43
2022-12-25T22:22:37.099Z,95.34
2022-12-25T22:25:05.373Z,95.06
2022-12-25T22:27:33.703Z,95.54
2022-12-25T22:30:00.412Z,95.20
2022-12-25T22:32:27.670Z,95.24
2022-12-25T22:34:54.296Z,95.42
2022-12-25T22:37:20.722Z,95.24
2022-12-25T22:39:47.116Z,95.48
2022-12-25T22:42:13.724Z,95.53
2022-12-25T22:44:40.152Z,95.25
2022-12-25T22:47:06.586Z,95.27
2022-12-25T22:49:33.031Z,95.25
2022-12-25T22:51:59.728Z,95.43
2022-12-25T22:54:30.607Z,95.28
2022-12-25T22:56:58.033Z,95.34
2022-12-25T22:59:24.452Z,95.54
2022-12-25T23:01:51.168Z,95.23
2022-12-25T23:04:17.869Z,95.17
2022-12-25T23:06:44.948Z,95.17
2022-12-25T23:09:20.455Z,95.24
2022-12-25T23:11:50.679Z,95.14
2022-12-25T23:14:36.108Z,95.29
2022-12-25T23:17:02.418Z,95.47
2022-12-25T23:19:47.210Z,95.14
2022-12-25T23:22:32.523Z,95.51
2022-12-25T23:25:17.916Z,95.33
2022-12-25T23:27:45.000Z,95.12
2022-12-25T23:30:16.442Z,95.49
2022-12-25T23:32:44.168Z,95.37
2022-12-25T23:35:11.668Z,95.26
2022-12-25T23:37:38.056Z,95.33
2022-12-25T23:40:05.207Z,95.45
2022-12-25T23:42:31.850Z,95.26
2022-12-25T23:44:58.223Z,95.23
2022-12-25T23:47:24.590Z,95.33
2022-12-25T23:49:50.956Z,95.45
2022-12-25T23:52:17.336Z,95.38
2022-12-25T23:54:43.748Z,95.26
2022-12-25T23:57:10.173Z,95.52
2022-12-25T23:59:36.637Z,95.13
